Архив погоды в Белогорске

Метеограмма Белогорск
Среда, 25 Июля
Время местн. Темп Ветер Видим Явления Облачность нижн/средн/верх Атм. давл. Влжн Точка росы ВНГО R Сост. почвы Tg s
Напр Скр Прв ур.ст ур.м изм
12:00 +25.1° С 2 - 20 км - преимущественно облачно 737 753 +0.1 64% +17.8° - - - - -
09:00 +20° С 1 - 20 км небо без изменений {ливневые осадки} облачно 737 753 -0.4 87% +17.7° 1 км 8 Влажная (без луж) +18° -
06:00 +17.2° С,С-В 1 - 10 км слабый ливневый дождь облачно 738 753 -0.6 94% +16.2° 1 км - - - -
03:00 +16.9° С,С-В 2 - 10 км слабый ливневый дождь облачно 738 754 -1 93% +15.8° 1 км - - - -
00:00 +18.4° С 2 - 10 км слабый ливневый дождь облачно 739 755 -0.4 93% +17.3° 1 км - - - -
Вторник, 24 Июля
Время местн. Темп Ветер Видим Явления Облачность нижн/средн/верх Атм. давл. Влжн Точка росы ВНГО R Сост. почвы Tg s
Напр Скр Прв ур.ст ур.м изм
21:00 +22.3° штиль 0 - 10 км слабый ливневый дождь облачно 740 755 +0.5 80% +18.7° 1 км 0 - - -
18:00 +24.4° С 1 - 20 км - облачно 739 754 -0.8 70% +18.6° более 2.5 км - - - -
15:00 +26.2° С 1 - 20 км - облачно 740 755 -0.7 65% +19° 1 км - - - -
12:00 +24.6° С 2 - 20 км - облачно 741 756 +0.5 70% +18.8° - - - - -
09:00 +22.5° С 2 - 20 км - переменная облачность 740 756 0 77% +18.3° более 2.5 км 0 Сухая (без трещин) +18° -
06:00 +19° С 1 - 4 км дымка облачно с прояснениями 740 756 +1 96% +18.4° - - - - -
03:00 +19.6° С-З 1 - 20 км - переменная облачность 739 755 +0.5 95% +18.8° более 2.5 км - - - -
00:00 +20.6° С 1 - 20 км - переменная облачность 739 754 +0.8 95% +19.7° более 2.5 км - - - -
Понедельник, 23 Июля
Время местн. Темп Ветер Видим Явления Облачность нижн/средн/верх Атм. давл. Влжн Точка росы ВНГО R Сост. почвы Tg s
Напр Скр Прв ур.ст ур.м изм
21:00 +23.4° З,Ю-З 1 - 20 км - переменная облачность 738 753 +0.8 79% +19.6° 1 км 0 - - -
18:00 +28.1° З 1 - 20 км - облачно с прояснениями 737 752 +0.4 54% +17.9° 1 км - - - -
15:00 +29.6° З,С-З 2 - 20 км - переменная облачность 737 752 -0.6 53% +18.9° 1.5 км - - - -
12:00 +28.1° З 2 - 20 км - переменная облачность 737 752 -0.2 59% +19.2° 1.5 км - - - -
09:00 +24.3° Ю-З 2 - 20 км - ясно 738 753 +0.2 68% +17.9° более 2.5 км 0 Влажная (без луж) +16° -
06:00 +18.4° Ю,Ю-З 1 - 20 км - переменная облачность 737 753 +0.5 90% +16.7° более 2.5 км - - - -
03:00 +17.9° Ю 1 - 20 км - переменная облачность 737 752 +0.2 92% +16.6° более 2.5 км - - - -
00:00 +18.6° Ю,Ю-В 2 - 20 км - переменная облачность 737 752 +0.7 93% +17.5° более 2.5 км - - - -
Воскресенье, 22 Июля
Время местн. Темп Ветер Видим Явления Облачность нижн/средн/верх Атм. давл. Влжн Точка росы ВНГО R Сост. почвы Tg s
Напр Скр Прв ур.ст ур.м изм
21:00 +20.3° Ю-В 2 - 20 км - облачно 736 751 +1.1 88% +18.3° 1 км 0 - - -
18:00 +22.3° Ю-В 4 - 20 км - облачно с прояснениями 735 750 -0.2 84% +19.5° 1 км - - - -
15:00 +22.1° Ю-В 4 - 20 км - облачно 735 750 -0.2 84% +19.2° 1 км - - - -
12:00 +20.9° Ю 4 - 20 км - облачно 735 750 +0.3 87% +18.6° 1 км - - - -
09:00 +19.4° Ю 4 - 20 км небо без изменений {ливневые осадки, морось} облачно 735 750 0 95% +18.6° 1 км 12 Влажная (без луж) +20° -